createdAt,value
2023-04-20T00:01:09.372Z,6.78
2023-04-20T00:03:33.558Z,6.40
2023-04-20T00:06:01.282Z,6.35
2023-04-20T00:08:25.382Z,6.57
2023-04-20T00:10:49.068Z,6.37
2023-04-20T00:13:13.100Z,6.36
2023-04-20T00:15:36.851Z,6.39
2023-04-20T00:18:00.767Z,6.36
2023-04-20T00:20:24.628Z,6.54
2023-04-20T00:22:49.740Z,6.44
2023-04-20T00:25:13.348Z,6.60
2023-04-20T00:27:37.067Z,6.50
2023-04-20T00:30:00.709Z,6.38
2023-04-20T00:32:24.449Z,6.45
2023-04-20T00:34:48.170Z,6.66
2023-04-20T00:37:11.923Z,6.39
2023-04-20T00:39:37.040Z,6.56
2023-04-20T00:42:06.570Z,6.58
2023-04-20T00:44:30.447Z,6.46
2023-04-20T00:46:56.459Z,6.52
2023-04-20T00:49:20.123Z,6.65
2023-04-20T00:51:45.534Z,6.60
2023-04-20T00:54:09.395Z,6.41
2023-04-20T00:56:34.646Z,6.53
2023-04-20T00:59:02.474Z,6.59
2023-04-20T01:01:27.204Z,6.49
2023-04-20T01:03:51.918Z,6.63
2023-04-20T01:06:16.486Z,6.66
2023-04-20T01:08:48.594Z,6.61
2023-04-20T01:11:12.248Z,6.47
2023-04-20T01:13:38.494Z,6.68
2023-04-20T01:16:03.642Z,6.55
2023-04-20T01:18:27.867Z,6.75
2023-04-20T01:20:51.542Z,6.79
2023-04-20T01:23:16.898Z,6.75
2023-04-20T01:25:41.735Z,6.72
2023-04-20T01:28:05.859Z,6.76
2023-04-20T01:30:30.190Z,6.82
2023-04-20T01:32:53.970Z,6.74
2023-04-20T01:35:19.599Z,6.77
2023-04-20T01:37:43.623Z,6.60
2023-04-20T01:40:11.611Z,6.65
2023-04-20T01:42:35.422Z,6.77
2023-04-20T01:44:59.658Z,6.90
2023-04-20T01:47:23.517Z,6.74
2023-04-20T01:49:47.298Z,6.73
2023-04-20T01:52:11.234Z,6.69
2023-04-20T01:54:34.985Z,6.84
2023-04-20T01:56:59.951Z,6.81
2023-04-20T01:59:23.604Z,6.85
2023-04-20T02:01:47.318Z,6.94
2023-04-20T02:04:13.930Z,6.86
2023-04-20T02:06:39.654Z,6.72
2023-04-20T02:09:06.816Z,6.72
2023-04-20T02:11:31.933Z,6.72
2023-04-20T02:13:57.469Z,6.85
2023-04-20T02:16:21.994Z,6.86
2023-04-20T02:18:45.950Z,7.02
2023-04-20T02:21:09.704Z,6.89
2023-04-20T02:23:33.820Z,6.76
2023-04-20T02:25:57.410Z,6.69
2023-04-20T02:28:21.096Z,6.95
2023-04-20T02:30:46.203Z,6.88
2023-04-20T02:33:10.174Z,6.78
2023-04-20T02:35:37.383Z,6.75
2023-04-20T02:38:03.299Z,6.86
2023-04-20T02:40:27.045Z,7.05
2023-04-20T02:42:50.939Z,6.93
2023-04-20T02:45:14.649Z,6.80
2023-04-20T02:47:42.197Z,6.89
2023-04-20T02:50:09.213Z,6.80
2023-04-20T02:52:48.124Z,6.78
2023-04-20T02:55:11.904Z,6.87
2023-04-20T02:57:36.882Z,6.88
2023-04-20T03:00:00.954Z,6.93
2023-04-20T03:02:38.021Z,6.65
2023-04-20T03:05:15.892Z,6.67
2023-04-20T03:07:44.594Z,6.66
2023-04-20T03:10:14.213Z,6.69
2023-04-20T03:12:47.565Z,6.74
2023-04-20T03:15:30.584Z,6.81
2023-04-20T03:18:18.666Z,6.72
2023-04-20T03:20:44.187Z,6.49
2023-04-20T03:23:08.424Z,6.59
2023-04-20T03:25:33.133Z,6.73
2023-04-20T03:28:01.419Z,6.92
2023-04-20T03:30:26.289Z,6.78
2023-04-20T03:32:56.870Z,6.75
2023-04-20T03:35:21.671Z,6.82
2023-04-20T03:37:46.643Z,6.59
2023-04-20T03:40:11.824Z,6.71
2023-04-20T03:42:35.413Z,6.35
2023-04-20T03:44:59.162Z,6.68
2023-04-20T03:47:23.096Z,6.62
2023-04-20T03:49:46.889Z,6.67
2023-04-20T03:52:10.402Z,6.55
2023-04-20T03:54:35.399Z,6.36
2023-04-20T03:56:59.627Z,6.65
2023-04-20T03:59:24.511Z,6.66
2023-04-20T04:01:48.241Z,6.58
2023-04-20T04:04:13.326Z,6.69
2023-04-20T04:06:37.320Z,6.57
2023-04-20T04:09:01.164Z,6.53
2023-04-20T04:11:30.017Z,6.42
2023-04-20T04:13:54.624Z,6.59
2023-04-20T04:16:18.379Z,6.45
2023-04-20T04:18:45.243Z,6.60
2023-04-20T04:21:10.333Z,6.72
2023-04-20T04:23:35.898Z,6.54
2023-04-20T04:26:09.151Z,6.73
2023-04-20T04:28:37.669Z,6.64
2023-04-20T04:31:21.498Z,6.57
2023-04-20T04:33:46.371Z,6.57
2023-04-20T04:36:16.585Z,6.60
2023-04-20T04:38:40.268Z,6.65
2023-04-20T04:41:05.614Z,6.75
2023-04-20T04:43:30.702Z,6.79
2023-04-20T04:46:14.670Z,6.75
2023-04-20T04:48:40.742Z,6.87
2023-04-20T04:51:04.400Z,6.90
2023-04-20T04:53:28.079Z,7.00
2023-04-20T04:55:51.619Z,6.83
2023-04-20T04:58:15.179Z,6.97
2023-04-20T05:00:38.878Z,6.74
2023-04-20T05:03:04.041Z,7.04
2023-04-20T05:05:28.182Z,6.88
2023-04-20T05:07:51.807Z,6.90
2023-04-20T05:10:15.440Z,7.12
2023-04-20T05:12:39.968Z,7.08
2023-04-20T05:15:03.696Z,6.94
2023-04-20T05:17:27.448Z,7.19
2023-04-20T05:19:52.452Z,7.16
2023-04-20T05:22:16.282Z,7.13
2023-04-20T05:24:39.943Z,7.23
2023-04-20T05:27:04.248Z,7.20
2023-04-20T05:29:27.992Z,7.22
2023-04-20T05:31:51.690Z,7.30
2023-04-20T05:34:15.212Z,7.17
2023-04-20T05:36:41.789Z,7.26
2023-04-20T05:39:06.040Z,7.32
2023-04-20T05:41:29.620Z,7.29
2023-04-20T05:43:53.223Z,7.44
2023-04-20T05:46:16.815Z,7.42
2023-04-20T05:48:40.571Z,7.50
2023-04-20T05:51:04.160Z,7.37
2023-04-20T05:53:29.084Z,7.52
2023-04-20T05:55:52.747Z,7.34
2023-04-20T05:58:17.036Z,7.43
2023-04-20T06:00:40.961Z,7.55
2023-04-20T06:03:05.501Z,7.52
2023-04-20T06:05:29.524Z,7.59
2023-04-20T06:07:53.249Z,7.39
2023-04-20T06:10:18.526Z,7.54
2023-04-20T06:12:42.139Z,7.61
2023-04-20T06:15:08.548Z,7.42
2023-04-20T06:17:32.215Z,7.68
2023-04-20T06:19:56.558Z,7.73
2023-04-20T06:22:20.679Z,7.75
2023-04-20T06:24:44.636Z,7.65
2023-04-20T06:27:09.648Z,7.75
2023-04-20T06:29:33.227Z,7.89
2023-04-20T06:31:56.942Z,7.81
2023-04-20T06:34:20.607Z,7.72
2023-04-20T06:36:44.624Z,7.57
2023-04-20T06:39:08.243Z,7.93
2023-04-20T06:41:31.909Z,7.88
2023-04-20T06:44:03.666Z,7.83
2023-04-20T06:46:27.269Z,7.86
2023-04-20T06:48:50.867Z,7.92
2023-04-20T06:51:15.058Z,8.13
2023-04-20T06:53:38.615Z,7.95
2023-04-20T06:56:02.435Z,8.27
2023-04-20T06:58:25.943Z,8.07
2023-04-20T07:00:52.559Z,7.89
2023-04-20T07:03:16.569Z,8.31
2023-04-20T07:05:40.438Z,8.28
2023-04-20T07:08:04.082Z,7.91
2023-04-20T07:10:28.473Z,8.22
2023-04-20T07:12:52.316Z,8.38
2023-04-20T07:15:16.192Z,8.63
2023-04-20T07:17:42.691Z,8.70
2023-04-20T07:20:08.706Z,8.77
2023-04-20T07:22:32.609Z,8.90
2023-04-20T07:24:56.377Z,8.76
2023-04-20T07:27:20.583Z,8.73
2023-04-20T07:29:44.256Z,9.18
2023-04-20T07:32:09.527Z,9.00
2023-04-20T07:34:42.301Z,9.23
2023-04-20T07:37:07.486Z,8.97
2023-04-20T07:39:31.075Z,9.22
2023-04-20T07:41:57.436Z,9.06
2023-04-20T07:44:22.969Z,9.09
2023-04-20T07:46:47.704Z,9.34
2023-04-20T07:49:13.043Z,9.44
2023-04-20T07:51:38.839Z,9.51
2023-04-20T07:54:02.529Z,9.58
2023-04-20T07:56:26.463Z,9.70
2023-04-20T07:58:50.104Z,9.72
2023-04-20T08:01:13.753Z,9.73
2023-04-20T08:03:37.636Z,9.60
2023-04-20T08:06:01.808Z,9.77
2023-04-20T08:08:26.950Z,9.72
2023-04-20T08:10:50.897Z,9.75
2023-04-20T08:13:14.454Z,9.60
2023-04-20T08:15:38.211Z,9.53
2023-04-20T08:18:01.956Z,9.90
2023-04-20T08:20:25.806Z,9.20
2023-04-20T08:22:49.494Z,9.91
2023-04-20T08:25:14.782Z,9.99
2023-04-20T08:27:38.642Z,10.26
2023-04-20T08:30:04.323Z,10.27
2023-04-20T08:32:29.326Z,10.42
2023-04-20T08:34:53.465Z,10.52
2023-04-20T08:37:17.357Z,10.26
2023-04-20T08:39:41.332Z,10.20
2023-04-20T08:42:07.377Z,10.40
2023-04-20T08:44:31.320Z,10.19
2023-04-20T08:46:55.098Z,10.29
2023-04-20T08:49:20.087Z,10.41
2023-04-20T08:51:44.802Z,10.68
2023-04-20T08:54:08.877Z,10.69
2023-04-20T08:56:37.060Z,10.56
2023-04-20T08:59:03.689Z,10.68
2023-04-20T09:01:35.318Z,10.65
2023-04-20T09:04:00.961Z,10.33
2023-04-20T09:06:24.623Z,10.18
2023-04-20T09:08:48.562Z,9.87
2023-04-20T09:11:23.782Z,9.86
2023-04-20T09:13:58.908Z,9.82
2023-04-20T09:16:24.673Z,10.13
2023-04-20T09:18:54.434Z,9.77
2023-04-20T09:21:18.035Z,9.78
2023-04-20T09:23:42.540Z,10.01
2023-04-20T09:26:06.577Z,10.12
2023-04-20T09:28:38.976Z,9.86
2023-04-20T09:31:02.862Z,9.83
2023-04-20T09:33:31.125Z,10.07
2023-04-20T09:35:54.928Z,9.74
2023-04-20T09:38:18.682Z,9.70
2023-04-20T09:40:42.313Z,9.78
2023-04-20T09:43:15.192Z,9.73
2023-04-20T09:45:41.005Z,9.70
2023-04-20T09:48:07.914Z,9.90
2023-04-20T09:50:45.660Z,10.13
2023-04-20T09:53:13.086Z,9.90
2023-04-20T09:55:36.866Z,10.19
2023-04-20T09:58:02.051Z,9.94
2023-04-20T10:00:25.900Z,10.02
2023-04-20T10:02:49.766Z,10.07
2023-04-20T10:05:13.414Z,10.29
2023-04-20T10:07:38.431Z,10.45
2023-04-20T10:10:11.608Z,10.21
2023-04-20T10:12:36.998Z,10.37
2023-04-20T10:15:01.423Z,10.68
2023-04-20T10:17:31.850Z,10.85
2023-04-20T10:19:55.589Z,10.69
2023-04-20T10:22:32.973Z,10.71
2023-04-20T10:24:58.220Z,10.64
2023-04-20T10:27:22.983Z,11.65
2023-04-20T10:29:47.008Z,11.85
2023-04-20T10:32:10.680Z,11.63
2023-04-20T10:34:35.646Z,11.72
2023-04-20T10:37:10.074Z,11.83
2023-04-20T10:39:33.723Z,11.91
2023-04-20T10:41:59.943Z,12.07
2023-04-20T10:44:23.743Z,12.64
2023-04-20T10:46:51.405Z,12.13
2023-04-20T10:49:15.285Z,12.84
2023-04-20T10:51:38.971Z,12.39
2023-04-20T10:54:06.170Z,12.67
2023-04-20T10:56:37.280Z,13.04
2023-04-20T10:59:09.697Z,13.24
2023-04-20T11:01:33.972Z,13.29
2023-04-20T11:03:57.653Z,13.86
2023-04-20T11:06:24.060Z,13.44
2023-04-20T11:08:47.666Z,13.58
2023-04-20T11:11:21.898Z,13.68
2023-04-20T11:13:45.535Z,13.73
2023-04-20T11:16:13.855Z,13.65
2023-04-20T11:18:37.652Z,13.85
2023-04-20T11:21:01.240Z,13.76
2023-04-20T11:23:27.447Z,13.93
2023-04-20T11:25:52.999Z,14.05
2023-04-20T11:28:16.632Z,14.54
2023-04-20T11:30:41.519Z,14.48
2023-04-20T11:33:06.880Z,14.29
2023-04-20T11:35:38.299Z,14.53
2023-04-20T11:38:01.905Z,14.50
2023-04-20T11:40:26.656Z,14.20
2023-04-20T11:42:52.120Z,14.27
2023-04-20T11:45:15.864Z,14.46
2023-04-20T11:47:40.934Z,14.00
2023-04-20T11:50:07.491Z,14.58
2023-04-20T11:52:31.191Z,14.78
2023-04-20T11:54:54.766Z,14.86
2023-04-20T11:57:18.460Z,15.03
2023-04-20T11:59:43.037Z,14.89
2023-04-20T12:02:06.813Z,14.97
2023-04-20T12:04:30.984Z,15.17
2023-04-20T12:06:56.194Z,14.83
2023-04-20T12:09:20.042Z,15.26
2023-04-20T12:11:44.016Z,15.09
2023-04-20T12:14:07.993Z,14.95
2023-04-20T12:16:31.804Z,14.57
2023-04-20T12:18:56.235Z,14.75
2023-04-20T12:21:19.863Z,14.78
2023-04-20T12:23:46.647Z,15.11
2023-04-20T12:26:10.293Z,14.88
2023-04-20T12:28:34.418Z,14.99
2023-04-20T12:30:58.210Z,15.01
2023-04-20T12:33:21.871Z,14.92
2023-04-20T12:35:46.348Z,14.70
2023-04-20T12:38:10.301Z,15.02
2023-04-20T12:40:36.651Z,15.04
2023-04-20T12:43:00.290Z,14.37
2023-04-20T12:45:24.255Z,14.79
2023-04-20T12:47:47.886Z,15.02
2023-04-20T12:50:12.402Z,14.79
2023-04-20T12:52:36.196Z,14.54
2023-04-20T12:55:00.046Z,14.67
2023-04-20T12:57:25.067Z,15.00
2023-04-20T12:59:49.686Z,14.82
2023-04-20T13:02:13.387Z,15.03
2023-04-20T13:04:37.378Z,15.48
2023-04-20T13:07:00.957Z,15.31
2023-04-20T13:09:27.196Z,15.59
2023-04-20T13:11:50.821Z,15.55
2023-04-20T13:14:15.893Z,15.43
2023-04-20T13:16:39.647Z,16.17
2023-04-20T13:19:03.488Z,16.14
2023-04-20T13:21:27.165Z,16.33
2023-04-20T13:23:51.276Z,16.50
2023-04-20T13:26:14.874Z,16.25
2023-04-20T13:28:38.833Z,15.98
2023-04-20T13:31:03.782Z,16.03
2023-04-20T13:33:27.542Z,16.41
2023-04-20T13:35:51.542Z,16.29
2023-04-20T13:38:15.130Z,16.38
2023-04-20T13:40:38.709Z,16.25
2023-04-20T13:43:02.305Z,16.60
2023-04-20T13:45:27.076Z,17.06
2023-04-20T13:47:52.326Z,16.78
2023-04-20T13:50:15.964Z,16.60
2023-04-20T13:52:39.822Z,17.00
2023-04-20T13:55:03.789Z,17.22
2023-04-20T13:57:27.458Z,16.82
2023-04-20T13:59:51.301Z,15.95
2023-04-20T14:02:14.958Z,16.57
2023-04-20T14:04:40.079Z,16.99
2023-04-20T14:07:03.778Z,17.31
2023-04-20T14:09:28.561Z,16.80
2023-04-20T14:11:55.003Z,17.28
2023-04-20T14:14:20.706Z,17.05
2023-04-20T14:16:45.319Z,16.92
2023-04-20T14:19:09.102Z,16.87
2023-04-20T14:21:34.954Z,16.71
2023-04-20T14:23:59.088Z,17.30
2023-04-20T14:26:22.822Z,17.43
2023-04-20T14:28:47.142Z,17.56
2023-04-20T14:31:10.803Z,17.67
2023-04-20T14:33:34.372Z,17.10
2023-04-20T14:35:58.092Z,17.12
2023-04-20T14:38:24.792Z,17.64
2023-04-20T14:40:50.971Z,17.43
2023-04-20T14:43:14.560Z,17.72
2023-04-20T14:45:38.176Z,17.88
2023-04-20T14:48:01.875Z,17.41
2023-04-20T14:50:27.496Z,17.32
2023-04-20T14:52:51.070Z,17.98
2023-04-20T14:55:16.222Z,18.03
2023-04-20T14:57:39.795Z,17.89
2023-04-20T15:00:06.589Z,17.83
2023-04-20T15:02:32.686Z,17.21
2023-04-20T15:04:59.182Z,17.19
2023-04-20T15:07:23.038Z,17.46
2023-04-20T15:09:46.696Z,17.32
2023-04-20T15:12:11.826Z,17.32
2023-04-20T15:14:35.598Z,17.17
2023-04-20T15:17:01.525Z,17.23
2023-04-20T15:19:25.200Z,17.04
2023-04-20T15:21:48.747Z,17.25
2023-04-20T15:24:12.418Z,16.85
2023-04-20T15:26:36.211Z,16.80
2023-04-20T15:29:01.185Z,16.79
2023-04-20T15:31:24.781Z,17.05
2023-04-20T15:33:49.082Z,17.14
2023-04-20T15:36:13.221Z,16.99
2023-04-20T15:38:37.229Z,16.99
2023-04-20T15:41:01.127Z,16.75
2023-04-20T15:43:25.324Z,16.61
2023-04-20T15:45:51.243Z,16.74
2023-04-20T15:48:15.173Z,16.74
2023-04-20T15:50:38.908Z,16.90
2023-04-20T15:53:02.961Z,16.92
2023-04-20T15:55:26.990Z,16.96
2023-04-20T15:57:57.348Z,16.91
2023-04-20T16:00:21.873Z,17.09
2023-04-20T16:02:47.300Z,17.21
2023-04-20T16:05:11.418Z,16.69
2023-04-20T16:07:35.077Z,16.78
2023-04-20T16:09:59.347Z,16.80
2023-04-20T16:12:26.490Z,16.80
2023-04-20T16:14:56.075Z,16.46
2023-04-20T16:17:20.012Z,16.62
2023-04-20T16:19:45.175Z,16.57
2023-04-20T16:22:11.204Z,16.51
2023-04-20T16:24:37.326Z,16.51
2023-04-20T16:27:03.974Z,16.49
2023-04-20T16:29:27.955Z,16.39
2023-04-20T16:31:51.758Z,16.44
2023-04-20T16:34:16.071Z,16.40
2023-04-20T16:36:43.198Z,16.54
2023-04-20T16:39:06.982Z,16.24
2023-04-20T16:41:30.492Z,16.49
2023-04-20T16:43:54.060Z,16.27
2023-04-20T16:46:19.150Z,16.40
2023-04-20T16:48:43.077Z,16.26
2023-04-20T16:51:06.931Z,16.23
2023-04-20T16:53:32.077Z,16.23
2023-04-20T16:55:55.596Z,16.12
2023-04-20T16:58:19.393Z,16.10
2023-04-20T17:00:48.135Z,16.22
2023-04-20T17:03:13.785Z,16.25
2023-04-20T17:05:43.544Z,16.20
2023-04-20T17:08:12.387Z,16.11
2023-04-20T17:10:38.567Z,15.79
2023-04-20T17:13:02.658Z,15.91
2023-04-20T17:15:26.860Z,15.86
2023-04-20T17:17:50.561Z,16.14
2023-04-20T17:20:14.574Z,16.03
2023-04-20T17:22:38.251Z,15.75
2023-04-20T17:25:03.234Z,15.90
2023-04-20T17:27:28.271Z,15.77
2023-04-20T17:29:52.087Z,15.96
2023-04-20T17:32:15.896Z,15.91
2023-04-20T17:34:40.023Z,15.75
2023-04-20T17:37:03.874Z,15.71
2023-04-20T17:39:27.602Z,15.61
2023-04-20T17:41:51.744Z,15.64
2023-04-20T17:44:22.717Z,15.37
2023-04-20T17:46:47.942Z,15.60
2023-04-20T17:49:11.874Z,15.62
2023-04-20T17:51:35.849Z,15.41
2023-04-20T17:53:59.754Z,15.14
2023-04-20T17:56:24.028Z,15.15
2023-04-20T17:58:48.340Z,15.09
2023-04-20T18:01:14.171Z,15.17
2023-04-20T18:03:38.014Z,15.13
2023-04-20T18:06:02.612Z,15.07
2023-04-20T18:08:26.164Z,15.01
2023-04-20T18:10:49.880Z,14.98
2023-04-20T18:13:13.488Z,14.75
2023-04-20T18:15:37.164Z,15.00
2023-04-20T18:18:07.995Z,14.77
2023-04-20T18:20:32.632Z,14.61
2023-04-20T18:23:08.021Z,14.42
2023-04-20T18:25:37.867Z,14.49
2023-04-20T18:28:09.378Z,14.48
2023-04-20T18:30:32.949Z,14.41
2023-04-20T18:32:56.625Z,14.34
2023-04-20T18:35:21.621Z,14.32
2023-04-20T18:37:45.156Z,14.42
2023-04-20T18:40:15.503Z,14.25
2023-04-20T18:42:42.096Z,14.07
2023-04-20T18:45:07.706Z,14.19
2023-04-20T18:47:32.049Z,14.10
2023-04-20T18:49:56.059Z,13.94
2023-04-20T18:52:21.941Z,13.86
2023-04-20T18:54:46.924Z,13.73
2023-04-20T18:57:10.601Z,13.62
2023-04-20T18:59:34.580Z,13.66
2023-04-20T19:01:58.801Z,13.57
2023-04-20T19:04:22.850Z,13.53
2023-04-20T19:06:47.119Z,13.52
2023-04-20T19:09:14.376Z,13.46
2023-04-20T19:11:40.124Z,13.43
2023-04-20T19:14:07.574Z,13.25
2023-04-20T19:16:32.634Z,13.29
2023-04-20T19:18:56.982Z,13.20
2023-04-20T19:21:25.138Z,13.25
2023-04-20T19:23:49.482Z,13.15
2023-04-20T19:26:14.572Z,13.21
2023-04-20T19:28:38.113Z,13.15
2023-04-20T19:31:02.031Z,13.08
2023-04-20T19:33:25.704Z,13.01
2023-04-20T19:35:50.983Z,12.96
2023-04-20T19:38:14.800Z,12.86
2023-04-20T19:40:38.627Z,12.89
2023-04-20T19:43:04.062Z,12.86
2023-04-20T19:45:28.309Z,12.67
2023-04-20T19:47:52.384Z,12.68
2023-04-20T19:50:16.456Z,12.58
2023-04-20T19:52:41.483Z,12.54
2023-04-20T19:55:07.405Z,12.44
2023-04-20T19:57:31.396Z,12.38
2023-04-20T19:59:56.467Z,12.31
2023-04-20T20:02:20.714Z,12.20
2023-04-20T20:04:44.907Z,12.15
2023-04-20T20:07:08.872Z,12.10
2023-04-20T20:09:32.602Z,11.96
2023-04-20T20:11:56.332Z,11.89
2023-04-20T20:14:20.999Z,11.86
2023-04-20T20:16:47.078Z,11.75
2023-04-20T20:19:11.663Z,11.72
2023-04-20T20:21:35.514Z,11.65
2023-04-20T20:23:59.344Z,11.58
2023-04-20T20:26:23.916Z,11.54
2023-04-20T20:28:47.844Z,11.45
2023-04-20T20:31:11.660Z,11.36
2023-04-20T20:33:37.758Z,11.31
2023-04-20T20:36:02.910Z,11.23
2023-04-20T20:38:26.460Z,11.21
2023-04-20T20:40:53.471Z,11.16
2023-04-20T20:43:19.414Z,11.14
2023-04-20T20:45:43.302Z,11.05
2023-04-20T20:48:07.509Z,10.98
2023-04-20T20:50:32.848Z,10.96
2023-04-20T20:52:56.459Z,10.85
2023-04-20T20:55:20.036Z,10.74
2023-04-20T20:57:43.771Z,10.72
2023-04-20T21:00:14.133Z,10.69
2023-04-20T21:02:38.915Z,10.67
2023-04-20T21:05:03.055Z,10.64
2023-04-20T21:07:28.623Z,10.59
2023-04-20T21:09:52.639Z,10.55
2023-04-20T21:12:17.015Z,10.57
2023-04-20T21:14:41.396Z,10.56
2023-04-20T21:17:05.604Z,10.31
2023-04-20T21:19:29.735Z,10.38
2023-04-20T21:21:53.615Z,10.40
2023-04-20T21:24:19.516Z,10.44
2023-04-20T21:26:43.408Z,10.30
2023-04-20T21:29:07.976Z,10.29
2023-04-20T21:31:32.959Z,10.31
2023-04-20T21:33:57.240Z,10.43
2023-04-20T21:36:21.542Z,10.42
2023-04-20T21:38:45.662Z,10.33
2023-04-20T21:41:10.913Z,10.34
2023-04-20T21:43:34.566Z,10.43
2023-04-20T21:45:59.117Z,10.39
2023-04-20T21:48:22.919Z,10.38
2023-04-20T21:50:47.068Z,10.39
2023-04-20T21:53:10.654Z,10.42
2023-04-20T21:55:34.444Z,10.44
2023-04-20T21:57:59.886Z,10.39
2023-04-20T22:00:23.746Z,10.51
2023-04-20T22:02:49.290Z,10.49
2023-04-20T22:05:14.385Z,10.41
2023-04-20T22:07:38.311Z,10.40
2023-04-20T22:10:02.290Z,10.48
2023-04-20T22:12:38.185Z,10.48
2023-04-20T22:15:04.768Z,10.43
2023-04-20T22:17:29.831Z,10.44
2023-04-20T22:19:53.496Z,10.33
2023-04-20T22:22:17.629Z,10.38
2023-04-20T22:24:41.295Z,10.40
2023-04-20T22:27:05.942Z,10.35
2023-04-20T22:29:30.078Z,10.41
2023-04-20T22:31:55.061Z,10.26
2023-04-20T22:34:18.708Z,10.45
2023-04-20T22:36:42.402Z,10.41
2023-04-20T22:39:06.200Z,10.41
2023-04-20T22:41:29.913Z,10.34
2023-04-20T22:43:53.621Z,10.37
2023-04-20T22:46:17.176Z,10.31
2023-04-20T22:48:42.287Z,10.35
2023-04-20T22:51:06.629Z,10.40
2023-04-20T22:53:30.644Z,10.40
2023-04-20T22:55:54.176Z,10.17
2023-04-20T22:58:17.778Z,10.28
2023-04-20T23:00:41.380Z,10.22
2023-04-20T23:03:05.225Z,10.10
2023-04-20T23:05:30.405Z,10.12
2023-04-20T23:07:55.100Z,10.07
2023-04-20T23:10:18.985Z,10.03
2023-04-20T23:12:42.876Z,9.90
2023-04-20T23:15:07.473Z,9.90
2023-04-20T23:17:32.389Z,9.92
2023-04-20T23:19:56.577Z,9.86
2023-04-20T23:22:21.633Z,9.82
2023-04-20T23:24:45.152Z,9.76
2023-04-20T23:27:08.774Z,9.78
2023-04-20T23:29:33.135Z,9.68
2023-04-20T23:31:56.834Z,9.67
2023-04-20T23:34:20.577Z,9.63
2023-04-20T23:36:44.321Z,9.46
2023-04-20T23:39:09.426Z,9.43
2023-04-20T23:41:33.148Z,9.31
2023-04-20T23:43:56.788Z,9.25
2023-04-20T23:46:20.707Z,9.23
2023-04-20T23:48:44.736Z,9.25
2023-04-20T23:51:08.297Z,9.18
2023-04-20T23:53:31.879Z,9.16
2023-04-20T23:55:56.887Z,9.20
2023-04-20T23:58:20.424Z,9.07
